sensor_id;sensor_type;location;lat;lon;timestamp;pressure;altitude;pressure_sealevel;temperature;humidity
4590;BME280;2307;48.448;9.216;2023-02-14T00:01:48;97126.19;;;0.42;100.00
4590;BME280;2307;48.448;9.216;2023-02-14T00:04:15;97133.66;;;0.57;100.00
4590;BME280;2307;48.448;9.216;2023-02-14T00:06:42;97125.97;;;0.55;100.00
4590;BME280;2307;48.448;9.216;2023-02-14T00:09:10;97121.91;;;0.62;100.00
4590;BME280;2307;48.448;9.216;2023-02-14T00:11:37;97114.78;;;0.64;100.00
4590;BME280;2307;48.448;9.216;2023-02-14T00:14:05;97110.41;;;0.65;100.00
4590;BME280;2307;48.448;9.216;2023-02-14T00:16:49;97110.53;;;0.63;100.00
4590;BME280;2307;48.448;9.216;2023-02-14T00:19:17;97107.13;;;0.63;100.00
4590;BME280;2307;48.448;9.216;2023-02-14T00:21:43;97106.84;;;0.66;100.00
4590;BME280;2307;48.448;9.216;2023-02-14T00:24:11;97099.91;;;0.76;100.00
4590;BME280;2307;48.448;9.216;2023-02-14T00:26:37;97099.72;;;0.68;100.00
4590;BME280;2307;48.448;9.216;2023-02-14T00:29:05;97095.63;;;0.65;100.00
4590;BME280;2307;48.448;9.216;2023-02-14T00:31:32;97096.41;;;0.56;100.00
4590;BME280;2307;48.448;9.216;2023-02-14T00:33:58;97096.00;;;0.61;100.00
4590;BME280;2307;48.448;9.216;2023-02-14T00:36:25;97096.41;;;0.56;100.00
4590;BME280;2307;48.448;9.216;2023-02-14T00:38:51;97096.16;;;0.59;100.00
4590;BME280;2307;48.448;9.216;2023-02-14T00:41:18;97091.25;;;0.66;100.00
4590;BME280;2307;48.448;9.216;2023-02-14T00:43:44;97100.81;;;0.65;100.00
4590;BME280;2307;48.448;9.216;2023-02-14T00:46:13;97090.16;;;0.68;100.00
4590;BME280;2307;48.448;9.216;2023-02-14T00:48:39;97084.44;;;0.74;100.00
4590;BME280;2307;48.448;9.216;2023-02-14T00:51:06;97087.44;;;0.70;100.00
4590;BME280;2307;48.448;9.216;2023-02-14T00:53:33;97103.06;;;0.70;100.00
4590;BME280;2307;48.448;9.216;2023-02-14T00:55:59;97090.28;;;0.67;100.00
4590;BME280;2307;48.448;9.216;2023-02-14T00:58:26;97091.81;;;0.69;100.00
4590;BME280;2307;48.448;9.216;2023-02-14T01:00:52;97089.25;;;0.79;100.00
4590;BME280;2307;48.448;9.216;2023-02-14T01:03:20;97092.41;;;0.82;100.00
4590;BME280;2307;48.448;9.216;2023-02-14T01:05:46;97093.47;;;0.80;100.00
4590;BME280;2307;48.448;9.216;2023-02-14T01:08:13;97101.16;;;0.81;100.00
4590;BME280;2307;48.448;9.216;2023-02-14T01:10:40;97096.22;;;0.78;100.00
4590;BME280;2307;48.448;9.216;2023-02-14T01:13:07;97103.88;;;0.80;100.00
4590;BME280;2307;48.448;9.216;2023-02-14T01:15:37;97093.31;;;0.72;100.00
4590;BME280;2307;48.448;9.216;2023-02-14T01:18:04;97101.16;;;0.81;100.00
4590;BME280;2307;48.448;9.216;2023-02-14T01:20:31;97103.91;;;0.89;100.00
4590;BME280;2307;48.448;9.216;2023-02-14T01:22:58;97105.97;;;0.95;100.00
4590;BME280;2307;48.448;9.216;2023-02-14T01:25:24;97106.38;;;0.91;100.00
4590;BME280;2307;48.448;9.216;2023-02-14T01:27:51;97095.03;;;0.92;100.00
4590;BME280;2307;48.448;9.216;2023-02-14T01:30:18;97096.94;;;0.99;100.00
4590;BME280;2307;48.448;9.216;2023-02-14T01:32:44;97088.75;;;1.04;100.00
4590;BME280;2307;48.448;9.216;2023-02-14T01:35:10;97086.28;;;1.02;100.00
4590;BME280;2307;48.448;9.216;2023-02-14T01:37:38;97082.03;;;0.92;100.00
4590;BME280;2307;48.448;9.216;2023-02-14T01:40:06;97084.38;;;0.95;100.00
4590;BME280;2307;48.448;9.216;2023-02-14T01:42:33;97078.75;;;0.99;100.00
4590;BME280;2307;48.448;9.216;2023-02-14T01:45:01;97080.94;;;1.04;100.00
4590;BME280;2307;48.448;9.216;2023-02-14T01:47:28;97077.38;;;1.05;100.00
4590;BME280;2307;48.448;9.216;2023-02-14T01:49:56;97081.25;;;1.11;100.00
4590;BME280;2307;48.448;9.216;2023-02-14T01:52:25;97081.09;;;1.12;100.00
4590;BME280;2307;48.448;9.216;2023-02-14T01:54:55;97077.94;;;1.18;100.00
4590;BME280;2307;48.448;9.216;2023-02-14T01:57:23;97077.00;;;1.19;100.00
4590;BME280;2307;48.448;9.216;2023-02-14T01:59:54;97082.47;;;1.26;100.00
4590;BME280;2307;48.448;9.216;2023-02-14T02:02:42;97081.81;;;1.24;100.00
4590;BME280;2307;48.448;9.216;2023-02-14T02:05:08;97088.91;;;1.22;100.00
4590;BME280;2307;48.448;9.216;2023-02-14T02:07:35;97076.72;;;1.22;100.00
4590;BME280;2307;48.448;9.216;2023-02-14T02:10:04;97087.53;;;1.37;100.00
4590;BME280;2307;48.448;9.216;2023-02-14T02:12:30;97081.09;;;1.22;100.00
4590;BME280;2307;48.448;9.216;2023-02-14T02:14:59;97091.09;;;1.17;100.00
4590;BME280;2307;48.448;9.216;2023-02-14T02:17:28;97086.44;;;1.11;100.00
4590;BME280;2307;48.448;9.216;2023-02-14T02:22:56;97075.75;;;1.04;100.00
4590;BME280;2307;48.448;9.216;2023-02-14T02:25:42;97076.59;;;1.14;100.00
4590;BME280;2307;48.448;9.216;2023-02-14T02:28:20;97078.09;;;1.17;100.00
4590;BME280;2307;48.448;9.216;2023-02-14T02:31:01;97065.75;;;1.09;100.00
4590;BME280;2307;48.448;9.216;2023-02-14T02:33:51;97070.66;;;1.02;100.00
4590;BME280;2307;48.448;9.216;2023-02-14T02:36:38;97068.88;;;0.93;100.00
4590;BME280;2307;48.448;9.216;2023-02-14T02:39:11;97067.06;;;0.75;100.00
4590;BME280;2307;48.448;9.216;2023-02-14T02:41:45;97062.94;;;0.72;100.00
4590;BME280;2307;48.448;9.216;2023-02-14T02:44:15;97070.75;;;0.72;100.00
4590;BME280;2307;48.448;9.216;2023-02-14T02:46:44;97063.22;;;0.69;100.00
4590;BME280;2307;48.448;9.216;2023-02-14T02:49:13;97059.75;;;0.59;100.00
4590;BME280;2307;48.448;9.216;2023-02-14T02:52:04;97063.63;;;0.74;100.00
4590;BME280;2307;48.448;9.216;2023-02-14T02:54:52;97071.56;;;0.63;100.00
4590;BME280;2307;48.448;9.216;2023-02-14T02:57:23;97074.81;;;0.65;100.00
4590;BME280;2307;48.448;9.216;2023-02-14T02:59:50;97070.84;;;0.61;100.00
4590;BME280;2307;48.448;9.216;2023-02-14T03:02:19;97067.44;;;0.70;100.00
4590;BME280;2307;48.448;9.216;2023-02-14T03:04:54;97077.56;;;0.73;100.00
4590;BME280;2307;48.448;9.216;2023-02-14T03:07:28;97072.53;;;0.72;100.00
4590;BME280;2307;48.448;9.216;2023-02-14T03:10:02;97072.38;;;0.73;100.00
4590;BME280;2307;48.448;9.216;2023-02-14T03:12:54;97076.50;;;0.76;100.00
4590;BME280;2307;48.448;9.216;2023-02-14T03:15:26;97065.09;;;0.67;100.00
4590;BME280;2307;48.448;9.216;2023-02-14T03:17:59;97070.44;;;0.56;100.00
4590;BME280;2307;48.448;9.216;2023-02-14T03:20:29;97067.00;;;0.56;100.00
4590;BME280;2307;48.448;9.216;2023-02-14T03:23:00;97068.50;;;0.58;100.00
4590;BME280;2307;48.448;9.216;2023-02-14T03:25:30;97060.25;;;0.43;100.00
4590;BME280;2307;48.448;9.216;2023-02-14T03:28:00;97064.63;;;0.43;100.00
4590;BME280;2307;48.448;9.216;2023-02-14T03:30:31;97065.16;;;0.37;100.00
4590;BME280;2307;48.448;9.216;2023-02-14T03:33:07;97065.41;;;0.34;100.00
4590;BME280;2307;48.448;9.216;2023-02-14T03:35:39;97061.63;;;0.38;100.00
4590;BME280;2307;48.448;9.216;2023-02-14T03:38:12;97073.91;;;0.36;100.00
4590;BME280;2307;48.448;9.216;2023-02-14T03:40:40;97069.41;;;0.38;100.00
4590;BME280;2307;48.448;9.216;2023-02-14T03:43:09;97071.75;;;0.41;100.00
4590;BME280;2307;48.448;9.216;2023-02-14T03:45:38;97067.06;;;0.35;100.00
4590;BME280;2307;48.448;9.216;2023-02-14T03:48:07;97059.97;;;0.37;100.00
4590;BME280;2307;48.448;9.216;2023-02-14T03:50:34;97063.38;;;0.37;100.00
4590;BME280;2307;48.448;9.216;2023-02-14T03:53:01;97059.25;;;0.25;100.00
4590;BME280;2307;48.448;9.216;2023-02-14T03:55:31;97069.75;;;0.24;100.00
4590;BME280;2307;48.448;9.216;2023-02-14T03:58:01;97061.53;;;0.19;100.00
4590;BME280;2307;48.448;9.216;2023-02-14T04:00:31;97069.75;;;0.24;100.00
4590;BME280;2307;48.448;9.216;2023-02-14T04:03:02;97061.66;;;0.17;100.00
4590;BME280;2307;48.448;9.216;2023-02-14T04:08:25;97062.59;;;0.16;100.00
4590;BME280;2307;48.448;9.216;2023-02-14T04:10:54;97066.16;;;0.15;100.00
4590;BME280;2307;48.448;9.216;2023-02-14T04:13:21;97059.03;;;0.17;100.00
4590;BME280;2307;48.448;9.216;2023-02-14T04:15:48;97056.06;;;0.22;100.00
4590;BME280;2307;48.448;9.216;2023-02-14T04:18:14;97056.38;;;0.28;100.00
4590;BME280;2307;48.448;9.216;2023-02-14T04:20:58;97061.22;;;0.12;100.00
4590;BME280;2307;48.448;9.216;2023-02-14T04:23:24;97053.03;;;0.17;100.00
4590;BME280;2307;48.448;9.216;2023-02-14T04:25:51;97053.13;;;0.06;100.00
4590;BME280;2307;48.448;9.216;2023-02-14T04:28:18;97049.28;;;0.10;100.00
4590;BME280;2307;48.448;9.216;2023-02-14T04:30:45;97043.97;;;0.11;100.00
4590;BME280;2307;48.448;9.216;2023-02-14T04:33:11;97060.97;;;0.15;100.00
4590;BME280;2307;48.448;9.216;2023-02-14T04:35:37;97045.22;;;0.17;100.00
4590;BME280;2307;48.448;9.216;2023-02-14T04:38:04;97056.66;;;0.05;100.00
4590;BME280;2307;48.448;9.216;2023-02-14T04:40:31;97052.00;;;-0.02;100.00
4590;BME280;2307;48.448;9.216;2023-02-14T04:42:57;97046.41;;;0.03;100.00
4590;BME280;2307;48.448;9.216;2023-02-14T04:45:26;97041.34;;;0.02;100.00
4590;BME280;2307;48.448;9.216;2023-02-14T04:47:53;97045.19;;;0.07;100.00
4590;BME280;2307;48.448;9.216;2023-02-14T04:50:19;97041.91;;;0.05;100.00
4590;BME280;2307;48.448;9.216;2023-02-14T04:52:47;97038.44;;;-0.05;100.00
4590;BME280;2307;48.448;9.216;2023-02-14T04:55:13;97032.97;;;-0.02;100.00
4590;BME280;2307;48.448;9.216;2023-02-14T04:57:40;97040.09;;;-0.04;100.00
4590;BME280;2307;48.448;9.216;2023-02-14T05:00:06;97032.66;;;-0.09;100.00
4590;BME280;2307;48.448;9.216;2023-02-14T05:02:34;97034.22;;;0.04;100.00
4590;BME280;2307;48.448;9.216;2023-02-14T05:05:01;97040.41;;;0.03;100.00
4590;BME280;2307;48.448;9.216;2023-02-14T05:07:27;97034.38;;;0.02;100.00
4590;BME280;2307;48.448;9.216;2023-02-14T05:09:53;97038.19;;;-0.02;100.00
4590;BME280;2307;48.448;9.216;2023-02-14T05:12:20;97039.81;;;-0.01;100.00
4590;BME280;2307;48.448;9.216;2023-02-14T05:14:46;97040.66;;;-0.01;100.00
4590;BME280;2307;48.448;9.216;2023-02-14T05:17:12;97051.88;;;0.00;100.00
4590;BME280;2307;48.448;9.216;2023-02-14T05:19:40;97052.50;;;-0.08;100.00
4590;BME280;2307;48.448;9.216;2023-02-14T05:22:06;97048.19;;;-0.18;100.00
4590;BME280;2307;48.448;9.216;2023-02-14T05:24:33;97052.25;;;-0.25;100.00
4590;BME280;2307;48.448;9.216;2023-02-14T05:26:59;97054.97;;;-0.27;100.00
4590;BME280;2307;48.448;9.216;2023-02-14T05:29:26;97060.44;;;-0.30;100.00
4590;BME280;2307;48.448;9.216;2023-02-14T05:31:52;97060.44;;;-0.30;100.00
4590;BME280;2307;48.448;9.216;2023-02-14T05:34:18;97066.13;;;-0.36;100.00
4590;BME280;2307;48.448;9.216;2023-02-14T05:36:46;97070.19;;;-0.43;100.00
4590;BME280;2307;48.448;9.216;2023-02-14T05:39:12;97070.19;;;-0.43;100.00
4590;BME280;2307;48.448;9.216;2023-02-14T05:41:39;97070.75;;;-0.39;100.00
4590;BME280;2307;48.448;9.216;2023-02-14T05:44:05;97070.75;;;-0.39;100.00
4590;BME280;2307;48.448;9.216;2023-02-14T05:46:32;97066.13;;;-0.36;100.00
4590;BME280;2307;48.448;9.216;2023-02-14T05:48:58;97061.63;;;-0.34;100.00
4590;BME280;2307;48.448;9.216;2023-02-14T05:51:24;97067.22;;;-0.38;100.00
4590;BME280;2307;48.448;9.216;2023-02-14T05:53:52;97055.88;;;-0.37;100.00
4590;BME280;2307;48.448;9.216;2023-02-14T05:56:18;97062.56;;;-0.35;100.00
4590;BME280;2307;48.448;9.216;2023-02-14T05:58:45;97055.50;;;-0.33;100.00
4590;BME280;2307;48.448;9.216;2023-02-14T06:01:11;97061.56;;;-0.23;100.00
4590;BME280;2307;48.448;9.216;2023-02-14T06:03:37;97062.88;;;-0.28;100.00
4590;BME280;2307;48.448;9.216;2023-02-14T06:06:04;97064.47;;;-0.37;100.00
4590;BME280;2307;48.448;9.216;2023-02-14T06:08:30;97062.78;;;-0.27;100.00
4590;BME280;2307;48.448;9.216;2023-02-14T06:10:58;97063.47;;;-0.25;100.00
4590;BME280;2307;48.448;9.216;2023-02-14T06:13:24;97063.72;;;-0.28;100.00
4590;BME280;2307;48.448;9.216;2023-02-14T06:15:51;97068.47;;;-0.33;100.00
4590;BME280;2307;48.448;9.216;2023-02-14T06:18:17;97072.78;;;-0.43;100.00
4590;BME280;2307;48.448;9.216;2023-02-14T06:20:43;97073.91;;;-0.36;100.00
4590;BME280;2307;48.448;9.216;2023-02-14T06:23:10;97073.13;;;-0.47;100.00
4590;BME280;2307;48.448;9.216;2023-02-14T06:25:36;97072.34;;;-0.48;100.00
4590;BME280;2307;48.448;9.216;2023-02-14T06:28:04;97069.91;;;-0.40;100.00
4590;BME280;2307;48.448;9.216;2023-02-14T06:30:30;97076.25;;;-0.33;100.00
4590;BME280;2307;48.448;9.216;2023-02-14T06:32:57;97073.19;;;-0.38;100.00
4590;BME280;2307;48.448;9.216;2023-02-14T06:35:23;97071.69;;;-0.40;100.00
4590;BME280;2307;48.448;9.216;2023-02-14T06:37:50;97084.63;;;-0.29;100.00
4590;BME280;2307;48.448;9.216;2023-02-14T06:40:16;97077.47;;;-0.37;100.00
4590;BME280;2307;48.448;9.216;2023-02-14T06:42:43;97075.75;;;-0.27;100.00
4590;BME280;2307;48.448;9.216;2023-02-14T06:45:11;97075.75;;;-0.27;100.00
4590;BME280;2307;48.448;9.216;2023-02-14T06:47:37;97077.41;;;-0.26;100.00
4590;BME280;2307;48.448;9.216;2023-02-14T06:50:04;97076.75;;;-0.18;100.00
4590;BME280;2307;48.448;9.216;2023-02-14T06:52:31;97077.47;;;-0.16;100.00
4590;BME280;2307;48.448;9.216;2023-02-14T06:54:57;97085.38;;;-0.18;100.00
4590;BME280;2307;48.448;9.216;2023-02-14T06:57:23;97077.16;;;-0.23;100.00
4590;BME280;2307;48.448;9.216;2023-02-14T06:59:50;97082.34;;;-0.23;100.00
4590;BME280;2307;48.448;9.216;2023-02-14T07:02:17;97075.56;;;-0.14;100.00
4590;BME280;2307;48.448;9.216;2023-02-14T07:04:44;97081.31;;;-0.11;100.00
4590;BME280;2307;48.448;9.216;2023-02-14T07:07:10;97085.63;;;0.00;100.00
4590;BME280;2307;48.448;9.216;2023-02-14T07:09:37;97087.59;;;-0.13;100.00
4590;BME280;2307;48.448;9.216;2023-02-14T07:12:03;97078.72;;;-0.11;100.00
4590;BME280;2307;48.448;9.216;2023-02-14T07:14:30;97079.41;;;-0.09;100.00
4590;BME280;2307;48.448;9.216;2023-02-14T07:16:56;97082.72;;;-0.07;100.00
4590;BME280;2307;48.448;9.216;2023-02-14T07:19:24;97079.72;;;-0.02;100.00
4590;BME280;2307;48.448;9.216;2023-02-14T07:21:50;97076.75;;;0.03;100.00
4590;BME280;2307;48.448;9.216;2023-02-14T07:24:16;97078.78;;;-0.01;100.00
4590;BME280;2307;48.448;9.216;2023-02-14T07:26:43;97072.06;;;-0.04;100.00
4590;BME280;2307;48.448;9.216;2023-02-14T07:29:09;97072.34;;;-0.07;100.00
4590;BME280;2307;48.448;9.216;2023-02-14T07:31:35;97072.59;;;-0.10;100.00
4590;BME280;2307;48.448;9.216;2023-02-14T07:34:02;97073.00;;;-0.25;100.00
4590;BME280;2307;48.448;9.216;2023-02-14T07:36:30;97070.56;;;-0.27;100.00
4590;BME280;2307;48.448;9.216;2023-02-14T07:38:56;97067.88;;;-0.16;100.00
4590;BME280;2307;48.448;9.216;2023-02-14T07:41:22;97066.38;;;0.03;100.00
4590;BME280;2307;48.448;9.216;2023-02-14T07:43:49;97062.25;;;0.00;100.00
4590;BME280;2307;48.448;9.216;2023-02-14T07:46:15;97072.88;;;-0.03;100.00
4590;BME280;2307;48.448;9.216;2023-02-14T07:48:42;97068.81;;;0.04;100.00
4590;BME280;2307;48.448;9.216;2023-02-14T07:51:08;97067.94;;;-0.06;100.00
4590;BME280;2307;48.448;9.216;2023-02-14T07:53:36;97065.66;;;0.00;100.00
4590;BME280;2307;48.448;9.216;2023-02-14T07:56:03;97071.09;;;0.18;100.00
4590;BME280;2307;48.448;9.216;2023-02-14T07:58:29;97062.88;;;0.23;100.00
4590;BME280;2307;48.448;9.216;2023-02-14T08:00:55;97058.66;;;0.22;100.00
4590;BME280;2307;48.448;9.216;2023-02-14T08:03:22;97065.84;;;0.39;100.00
4590;BME280;2307;48.448;9.216;2023-02-14T08:05:48;97068.41;;;0.29;100.00
4590;BME280;2307;48.448;9.216;2023-02-14T08:08:22;97065.28;;;0.35;100.00
4590;BME280;2307;48.448;9.216;2023-02-14T08:10:49;97066.44;;;0.52;100.00
4590;BME280;2307;48.448;9.216;2023-02-14T08:13:16;97059.75;;;0.59;100.00
4590;BME280;2307;48.448;9.216;2023-02-14T08:15:42;97061.84;;;0.65;100.00
4590;BME280;2307;48.448;9.216;2023-02-14T08:18:26;97067.59;;;0.69;100.00
4590;BME280;2307;48.448;9.216;2023-02-14T08:20:52;97058.66;;;0.62;100.00
4590;BME280;2307;48.448;9.216;2023-02-14T08:23:19;97055.69;;;0.66;100.00
4590;BME280;2307;48.448;9.216;2023-02-14T08:25:46;97060.88;;;0.66;100.00
4590;BME280;2307;48.448;9.216;2023-02-14T08:28:14;97053.75;;;0.68;100.00
4590;BME280;2307;48.448;9.216;2023-02-14T08:30:41;97064.16;;;0.68;100.00
4590;BME280;2307;48.448;9.216;2023-02-14T08:33:07;97059.63;;;0.61;100.00
4590;BME280;2307;48.448;9.216;2023-02-14T08:35:34;97057.84;;;0.61;100.00
4590;BME280;2307;48.448;9.216;2023-02-14T08:38:01;97052.63;;;0.61;100.00
4590;BME280;2307;48.448;9.216;2023-02-14T08:40:27;97049.91;;;0.53;100.00
4590;BME280;2307;48.448;9.216;2023-02-14T08:42:54;97052.38;;;0.64;100.00
4590;BME280;2307;48.448;9.216;2023-02-14T08:45:22;97063.22;;;0.69;100.00
4590;BME280;2307;48.448;9.216;2023-02-14T08:47:48;97052.09;;;0.67;100.00
4590;BME280;2307;48.448;9.216;2023-02-14T08:50:15;97054.84;;;0.66;100.00
4590;BME280;2307;48.448;9.216;2023-02-14T08:52:42;97055.13;;;0.63;100.00
4590;BME280;2307;48.448;9.216;2023-02-14T08:55:09;97063.03;;;0.61;100.00
4590;BME280;2307;48.448;9.216;2023-02-14T08:57:35;97061.41;;;0.60;100.00
4590;BME280;2307;48.448;9.216;2023-02-14T09:00:02;97064.47;;;0.75;100.00
4590;BME280;2307;48.448;9.216;2023-02-14T09:02:30;97064.06;;;0.89;100.00
4590;BME280;2307;48.448;9.216;2023-02-14T09:04:56;97064.50;;;1.03;100.00
4590;BME280;2307;48.448;9.216;2023-02-14T09:07:23;97063.28;;;1.08;100.00
4590;BME280;2307;48.448;9.216;2023-02-14T09:09:50;97063.44;;;1.16;100.00
4590;BME280;2307;48.448;9.216;2023-02-14T09:12:16;97066.59;;;1.19;100.00
4590;BME280;2307;48.448;9.216;2023-02-14T09:14:43;97072.47;;;1.31;100.00
4590;BME280;2307;48.448;9.216;2023-02-14T09:17:09;97063.44;;;1.44;100.00
4590;BME280;2307;48.448;9.216;2023-02-14T09:19:38;97061.22;;;1.49;100.00
4590;BME280;2307;48.448;9.216;2023-02-14T09:22:05;97061.50;;;1.56;100.00
4590;BME280;2307;48.448;9.216;2023-02-14T09:24:32;97059.31;;;1.61;100.00
4590;BME280;2307;48.448;9.216;2023-02-14T09:26:59;97059.06;;;1.64;100.00
4590;BME280;2307;48.448;9.216;2023-02-14T09:29:25;97050.53;;;1.72;100.00
4590;BME280;2307;48.448;9.216;2023-02-14T09:31:52;97051.91;;;1.76;100.00
4590;BME280;2307;48.448;9.216;2023-02-14T09:34:19;97038.47;;;1.80;100.00
4590;BME280;2307;48.448;9.216;2023-02-14T09:36:46;97048.69;;;2.01;100.00
4590;BME280;2307;48.448;9.216;2023-02-14T09:39:30;97043.72;;;2.07;100.00
4590;BME280;2307;48.448;9.216;2023-02-14T09:42:00;97040.31;;;2.07;100.00
4590;BME280;2307;48.448;9.216;2023-02-14T09:44:30;97034.97;;;2.08;100.00
4590;BME280;2307;48.448;9.216;2023-02-14T09:47:00;97035.34;;;2.13;100.00
4590;BME280;2307;48.448;9.216;2023-02-14T09:49:29;97033.94;;;2.19;100.00
4590;BME280;2307;48.448;9.216;2023-02-14T09:51:58;97039.13;;;2.29;100.00
4590;BME280;2307;48.448;9.216;2023-02-14T09:54:26;97035.81;;;2.36;100.00
4590;BME280;2307;48.448;9.216;2023-02-14T09:56:55;97036.44;;;2.48;100.00
4590;BME280;2307;48.448;9.216;2023-02-14T09:59:25;97038.19;;;2.57;100.00
4590;BME280;2307;48.448;9.216;2023-02-14T10:01:55;97042.84;;;2.63;100.00
4590;BME280;2307;48.448;9.216;2023-02-14T10:04:25;97034.66;;;2.76;100.00
4590;BME280;2307;48.448;9.216;2023-02-14T10:06:56;97033.91;;;2.83;100.00
4590;BME280;2307;48.448;9.216;2023-02-14T10:09:34;97026.88;;;2.93;100.00
4590;BME280;2307;48.448;9.216;2023-02-14T10:12:03;97035.16;;;3.06;100.00
4590;BME280;2307;48.448;9.216;2023-02-14T10:14:30;97028.44;;;3.21;100.00
4590;BME280;2307;48.448;9.216;2023-02-14T10:17:05;97018.75;;;3.32;100.00
4590;BME280;2307;48.448;9.216;2023-02-14T10:19:33;97025.06;;;3.47;100.00
4590;BME280;2307;48.448;9.216;2023-02-14T10:22:02;97015.50;;;3.55;100.00
4590;BME280;2307;48.448;9.216;2023-02-14T10:24:34;97014.84;;;3.71;100.00
4590;BME280;2307;48.448;9.216;2023-02-14T10:27:03;97012.78;;;3.83;100.00
4590;BME280;2307;48.448;9.216;2023-02-14T10:29:34;97015.34;;;4.00;100.00
4590;BME280;2307;48.448;9.216;2023-02-14T10:32:01;97007.34;;;4.27;100.00
4590;BME280;2307;48.448;9.216;2023-02-14T10:34:32;97011.34;;;4.48;100.00
4590;BME280;2307;48.448;9.216;2023-02-14T10:42:41;97000.41;;;5.43;100.00
4590;BME280;2307;48.448;9.216;2023-02-14T10:45:14;97001.06;;;5.85;100.00
4590;BME280;2307;48.448;9.216;2023-02-14T10:47:44;96998.97;;;6.52;100.00
4590;BME280;2307;48.448;9.216;2023-02-14T10:50:15;96993.31;;;7.24;100.00
4590;BME280;2307;48.448;9.216;2023-02-14T10:52:44;96995.53;;;7.58;100.00
4590;BME280;2307;48.448;9.216;2023-02-14T10:55:14;96993.84;;;8.17;100.00
4590;BME280;2307;48.448;9.216;2023-02-14T10:57:44;96991.31;;;8.68;97.46
4590;BME280;2307;48.448;9.216;2023-02-14T11:00:16;96991.41;;;9.10;93.85
4590;BME280;2307;48.448;9.216;2023-02-14T11:02:45;96988.00;;;9.73;90.55
4590;BME280;2307;48.448;9.216;2023-02-14T11:05:16;96988.44;;;10.32;84.24
4590;BME280;2307;48.448;9.216;2023-02-14T11:07:45;96976.91;;;10.81;75.69
4590;BME280;2307;48.448;9.216;2023-02-14T11:10:21;96981.50;;;11.13;76.22
4590;BME280;2307;48.448;9.216;2023-02-14T11:12:50;96985.53;;;11.83;67.82
4590;BME280;2307;48.448;9.216;2023-02-14T11:15:21;96978.75;;;12.19;63.22
4590;BME280;2307;48.448;9.216;2023-02-14T11:17:48;96984.19;;;12.64;60.79
4590;BME280;2307;48.448;9.216;2023-02-14T11:20:23;96973.22;;;12.98;58.69
4590;BME280;2307;48.448;9.216;2023-02-14T11:22:50;96974.53;;;13.27;56.72
4590;BME280;2307;48.448;9.216;2023-02-14T11:25:18;96965.53;;;13.66;54.89
4590;BME280;2307;48.448;9.216;2023-02-14T11:27:45;96968.53;;;13.76;52.32
4590;BME280;2307;48.448;9.216;2023-02-14T11:30:26;96955.06;;;13.40;51.84
4590;BME280;2307;48.448;9.216;2023-02-14T11:32:53;96962.72;;;13.86;52.43
4590;BME280;2307;48.448;9.216;2023-02-14T11:35:20;96957.88;;;14.25;52.05
4590;BME280;2307;48.448;9.216;2023-02-14T11:37:51;96954.16;;;14.51;50.36
4590;BME280;2307;48.448;9.216;2023-02-14T11:40:22;96956.09;;;14.80;48.81
4590;BME280;2307;48.448;9.216;2023-02-14T11:42:50;96952.94;;;15.02;48.12
4590;BME280;2307;48.448;9.216;2023-02-14T11:45:32;96945.66;;;14.79;46.99
4590;BME280;2307;48.448;9.216;2023-02-14T11:48:06;96942.06;;;14.55;48.40
4590;BME280;2307;48.448;9.216;2023-02-14T11:50:34;96942.63;;;14.57;48.30
4590;BME280;2307;48.448;9.216;2023-02-14T11:53:01;96944.78;;;15.15;47.66
4590;BME280;2307;48.448;9.216;2023-02-14T11:55:28;96936.13;;;15.49;46.33
4590;BME280;2307;48.448;9.216;2023-02-14T11:57:57;96939.78;;;15.78;45.78
4590;BME280;2307;48.448;9.216;2023-02-14T12:00:24;96932.25;;;15.86;45.00
4590;BME280;2307;48.448;9.216;2023-02-14T12:02:52;96926.81;;;15.93;44.75
4590;BME280;2307;48.448;9.216;2023-02-14T12:05:19;96927.88;;;16.15;44.27
4590;BME280;2307;48.448;9.216;2023-02-14T12:07:48;96916.06;;;16.23;42.88
4590;BME280;2307;48.448;9.216;2023-02-14T12:10:23;96921.72;;;16.61;42.58
4590;BME280;2307;48.448;9.216;2023-02-14T12:12:51;96913.91;;;16.71;42.39
4590;BME280;2307;48.448;9.216;2023-02-14T12:15:22;96909.13;;;16.85;42.13
4590;BME280;2307;48.448;9.216;2023-02-14T12:17:52;96910.91;;;16.79;42.30
4590;BME280;2307;48.448;9.216;2023-02-14T12:20:20;96909.06;;;17.08;41.42
4590;BME280;2307;48.448;9.216;2023-02-14T12:22:49;96907.66;;;17.34;41.02
4590;BME280;2307;48.448;9.216;2023-02-14T12:25:17;96909.88;;;17.09;41.92
4590;BME280;2307;48.448;9.216;2023-02-14T12:27:46;96905.97;;;17.44;41.26
4590;BME280;2307;48.448;9.216;2023-02-14T12:30:15;96907.81;;;17.72;40.52
4590;BME280;2307;48.448;9.216;2023-02-14T12:32:44;96905.53;;;17.97;39.84
4590;BME280;2307;48.448;9.216;2023-02-14T12:35:14;96900.44;;;17.79;39.12
4590;BME280;2307;48.448;9.216;2023-02-14T12:37:44;96900.91;;;17.93;39.52
4590;BME280;2307;48.448;9.216;2023-02-14T12:40:18;96898.34;;;17.81;39.73
4590;BME280;2307;48.448;9.216;2023-02-14T12:42:53;96901.00;;;17.81;39.34
4590;BME280;2307;48.448;9.216;2023-02-14T12:45:24;96890.78;;;18.12;38.93
4590;BME280;2307;48.448;9.216;2023-02-14T12:47:55;96887.75;;;17.25;39.68
4590;BME280;2307;48.448;9.216;2023-02-14T12:50:28;96890.84;;;17.50;39.90
4590;BME280;2307;48.448;9.216;2023-02-14T12:53:13;96886.91;;;17.86;39.22
4590;BME280;2307;48.448;9.216;2023-02-14T12:55:49;96881.50;;;17.81;39.15
4590;BME280;2307;48.448;9.216;2023-02-14T12:58:24;96876.72;;;17.66;39.47
4590;BME280;2307;48.448;9.216;2023-02-14T13:00:55;96877.91;;;16.85;40.17
4590;BME280;2307;48.448;9.216;2023-02-14T13:03:37;96878.78;;;17.03;40.22
4590;BME280;2307;48.448;9.216;2023-02-14T13:06:11;96864.84;;;17.00;39.93
4590;BME280;2307;48.448;9.216;2023-02-14T13:08:45;96864.63;;;17.64;39.66
4590;BME280;2307;48.448;9.216;2023-02-14T13:11:16;96868.06;;;17.76;39.23
4590;BME280;2307;48.448;9.216;2023-02-14T13:13:49;96862.44;;;17.16;40.06
4590;BME280;2307;48.448;9.216;2023-02-14T13:16:21;96856.38;;;16.75;40.73
4590;BME280;2307;48.448;9.216;2023-02-14T13:18:49;96847.06;;;16.78;40.96
4590;BME280;2307;48.448;9.216;2023-02-14T13:21:22;96856.44;;;16.92;40.10
4590;BME280;2307;48.448;9.216;2023-02-14T13:23:50;96842.72;;;17.17;39.14
4590;BME280;2307;48.448;9.216;2023-02-14T13:26:17;96840.66;;;17.52;38.39
4590;BME280;2307;48.448;9.216;2023-02-14T13:28:47;96836.66;;;17.66;38.84
4590;BME280;2307;48.448;9.216;2023-02-14T13:31:15;96839.88;;;17.68;37.51
4590;BME280;2307;48.448;9.216;2023-02-14T13:33:42;96840.66;;;17.52;38.65
4590;BME280;2307;48.448;9.216;2023-02-14T13:36:10;96835.13;;;17.25;39.25
4590;BME280;2307;48.448;9.216;2023-02-14T13:38:39;96835.63;;;17.39;39.18
4590;BME280;2307;48.448;9.216;2023-02-14T13:41:08;96839.38;;;16.93;39.77